sensor_id;sensor_type;location;lat;lon;timestamp;pressure;altitude;pressure_sealevel;temperature;humidity
12073;BME280;6098;49.004;8.372;2023-02-03T00:12:20;101776.33;;;7.72;84.10
12073;BME280;6098;49.004;8.372;2023-02-03T00:27:10;101764.44;;;7.75;83.48
12073;BME280;6098;49.004;8.372;2023-02-03T00:42:02;101773.66;;;7.79;82.66
12073;BME280;6098;49.004;8.372;2023-02-03T00:56:56;101777.16;;;7.85;82.24
12073;BME280;6098;49.004;8.372;2023-02-03T01:11:49;101747.66;;;7.86;82.53
12073;BME280;6098;49.004;8.372;2023-02-03T01:26:40;101734.92;;;7.85;83.32
12073;BME280;6098;49.004;8.372;2023-02-03T01:41:32;101778.05;;;7.83;84.16
12073;BME280;6098;49.004;8.372;2023-02-03T01:56:22;101718.23;;;7.79;84.68
12073;BME280;6098;49.004;8.372;2023-02-03T02:11:12;101673.81;;;7.74;84.99
12073;BME280;6098;49.004;8.372;2023-02-03T02:41:30;101662.80;;;7.79;85.88
12073;BME280;6098;49.004;8.372;2023-02-03T02:56:20;101665.89;;;7.77;86.09
12073;BME280;6098;49.004;8.372;2023-02-03T03:26:16;101662.83;;;7.72;86.26
12073;BME280;6098;49.004;8.372;2023-02-03T03:41:05;101683.98;;;7.67;86.40
12073;BME280;6098;49.004;8.372;2023-02-03T03:55:55;101711.71;;;7.63;85.99
12073;BME280;6098;49.004;8.372;2023-02-03T04:10:46;101727.59;;;7.58;85.77
12073;BME280;6098;49.004;8.372;2023-02-03T04:25:36;101694.64;;;7.53;86.80
12073;BME280;6098;49.004;8.372;2023-02-03T04:40:26;101709.18;;;7.45;87.14
12073;BME280;6098;49.004;8.372;2023-02-03T04:55:18;101692.01;;;7.48;87.00
12073;BME280;6098;49.004;8.372;2023-02-03T05:10:09;101697.27;;;7.52;86.37
12073;BME280;6098;49.004;8.372;2023-02-03T05:25:01;101693.25;;;7.61;84.78
12073;BME280;6098;49.004;8.372;2023-02-03T05:39:51;101701.15;;;7.68;84.04
12073;BME280;6098;49.004;8.372;2023-02-03T05:54:42;101683.93;;;7.74;83.52
12073;BME280;6098;49.004;8.372;2023-02-03T06:09:31;101690.08;;;7.76;83.57
12073;BME280;6098;49.004;8.372;2023-02-03T06:24:22;101697.61;;;7.72;83.66
12073;BME280;6098;49.004;8.372;2023-02-03T06:39:12;101657.70;;;7.53;84.45
12073;BME280;6098;49.004;8.372;2023-02-03T06:54:02;101674.42;;;7.48;84.04
12073;BME280;6098;49.004;8.372;2023-02-03T07:08:52;101648.97;;;7.41;86.03
12073;BME280;6098;49.004;8.372;2023-02-03T07:23:42;101635.84;;;7.30;86.20
12073;BME280;6098;49.004;8.372;2023-02-03T07:38:33;101685.97;;;7.26;86.90
12073;BME280;6098;49.004;8.372;2023-02-03T07:53:22;101727.71;;;7.30;86.74
12073;BME280;6098;49.004;8.372;2023-02-03T08:08:14;101752.73;;;7.39;86.08
12073;BME280;6098;49.004;8.372;2023-02-03T08:23:03;101737.75;;;7.44;86.19
12073;BME280;6098;49.004;8.372;2023-02-03T08:37:54;101747.39;;;7.51;85.57
12073;BME280;6098;49.004;8.372;2023-02-03T08:52:45;101731.58;;;7.53;85.76
12073;BME280;6098;49.004;8.372;2023-02-03T09:07:35;101742.98;;;7.59;86.52
12073;BME280;6098;49.004;8.372;2023-02-03T09:22:26;101732.37;;;7.67;86.60
12073;BME280;6098;49.004;8.372;2023-02-03T09:37:17;101723.07;;;7.76;87.84
12073;BME280;6098;49.004;8.372;2023-02-03T09:52:09;101713.66;;;8.05;87.20
12073;BME280;6098;49.004;8.372;2023-02-03T10:07:05;101713.70;;;7.99;87.46
12073;BME280;6098;49.004;8.372;2023-02-03T10:21:56;101725.48;;;8.10;86.62
12073;BME280;6098;49.004;8.372;2023-02-03T10:36:56;101712.63;;;8.24;85.06
12073;BME280;6098;49.004;8.372;2023-02-03T10:51:51;101700.52;;;8.52;83.67
12073;BME280;6098;49.004;8.372;2023-02-03T11:06:52;101700.34;;;8.71;82.28
12073;BME280;6098;49.004;8.372;2023-02-03T11:36:31;101655.99;;;8.94;82.13
12073;BME280;6098;49.004;8.372;2023-02-03T12:37:11;101680.87;;;9.49;76.23
12073;BME280;6098;49.004;8.372;2023-02-03T12:52:03;101636.40;;;9.45;76.82
12073;BME280;6098;49.004;8.372;2023-02-03T13:07:15;101579.94;;;9.43;77.27
12073;BME280;6098;49.004;8.372;2023-02-03T13:22:11;101587.31;;;9.51;77.71
12073;BME280;6098;49.004;8.372;2023-02-03T13:52:01;101572.52;;;9.39;79.78
12073;BME280;6098;49.004;8.372;2023-02-03T14:07:04;101558.94;;;9.33;81.31
12073;BME280;6098;49.004;8.372;2023-02-03T14:21:54;101581.89;;;9.30;81.66
12073;BME280;6098;49.004;8.372;2023-02-03T14:36:47;101561.61;;;9.31;81.73
12073;BME280;6098;49.004;8.372;2023-02-03T14:51:54;101617.18;;;9.31;81.73
12073;BME280;6098;49.004;8.372;2023-02-03T15:06:46;101589.45;;;9.28;81.83
12073;BME280;6098;49.004;8.372;2023-02-03T15:21:39;101613.28;;;9.25;81.93
12073;BME280;6098;49.004;8.372;2023-02-03T15:51:36;101651.75;;;9.18;83.20
12073;BME280;6098;49.004;8.372;2023-02-03T16:06:31;101662.42;;;9.09;85.25
12073;BME280;6098;49.004;8.372;2023-02-03T16:36:32;101649.75;;;9.00;85.98
12073;BME280;6098;49.004;8.372;2023-02-03T16:51:47;101637.93;;;8.95;86.83
12073;BME280;6098;49.004;8.372;2023-02-03T17:06:37;101630.48;;;8.92;87.60
12073;BME280;6098;49.004;8.372;2023-02-03T17:21:28;101644.14;;;8.91;87.60
12073;BME280;6098;49.004;8.372;2023-02-03T17:36:19;101670.98;;;8.95;87.60
12073;BME280;6098;49.004;8.372;2023-02-03T17:51:14;101659.06;;;8.97;87.50
12073;BME280;6098;49.004;8.372;2023-02-03T18:06:06;101663.87;;;9.01;87.49
12073;BME280;6098;49.004;8.372;2023-02-03T18:20:57;101685.03;;;9.01;87.96
12073;BME280;6098;49.004;8.372;2023-02-03T18:35:48;101702.21;;;9.00;88.69
12073;BME280;6098;49.004;8.372;2023-02-03T18:50:39;101714.09;;;9.02;88.99
12073;BME280;6098;49.004;8.372;2023-02-03T19:05:30;101732.61;;;9.03;89.10
12073;BME280;6098;49.004;8.372;2023-02-03T19:20:20;101714.08;;;9.05;89.31
12073;BME280;6098;49.004;8.372;2023-02-03T19:35:11;101738.72;;;9.08;88.83
12073;BME280;6098;49.004;8.372;2023-02-03T19:50:02;101757.66;;;9.11;90.15
12073;BME280;6098;49.004;8.372;2023-02-03T20:04:52;101771.84;;;9.03;91.84
12073;BME280;6098;49.004;8.372;2023-02-03T20:19:57;101789.59;;;8.92;94.16
12073;BME280;6098;49.004;8.372;2023-02-03T20:34:47;101771.58;;;8.86;95.07
12073;BME280;6098;49.004;8.372;2023-02-03T20:49:39;101767.18;;;8.83;95.40
12073;BME280;6098;49.004;8.372;2023-02-03T21:04:45;101765.39;;;8.88;94.82
12073;BME280;6098;49.004;8.372;2023-02-03T21:20:00;101771.05;;;8.93;94.47
12073;BME280;6098;49.004;8.372;2023-02-03T21:34:51;101775.86;;;8.96;93.94
12073;BME280;6098;49.004;8.372;2023-02-03T21:49:42;101778.47;;;9.00;93.53
12073;BME280;6098;49.004;8.372;2023-02-03T22:04:33;101774.48;;;9.02;94.07
12073;BME280;6098;49.004;8.372;2023-02-03T22:19:24;101778.02;;;9.03;94.19
12073;BME280;6098;49.004;8.372;2023-02-03T22:34:14;101795.69;;;8.99;94.59
12073;BME280;6098;49.004;8.372;2023-02-03T22:49:05;101811.07;;;9.02;94.57
12073;BME280;6098;49.004;8.372;2023-02-03T23:03:57;101804.42;;;9.06;94.33
12073;BME280;6098;49.004;8.372;2023-02-03T23:18:48;101816.72;;;9.09;93.95
12073;BME280;6098;49.004;8.372;2023-02-03T23:33:38;101825.11;;;9.10;94.46
12073;BME280;6098;49.004;8.372;2023-02-03T23:48:29;101838.76;;;9.12;94.63
